sensor_id;sensor_type;location;lat;lon;timestamp;temperature;humidity
25302;DHT22;13243;50.888;4.724;2023-02-16T00:04:30;6.90;99.90
25302;DHT22;13243;50.888;4.724;2023-02-16T00:09:31;6.80;99.90
25302;DHT22;13243;50.888;4.724;2023-02-16T00:14:35;6.60;99.90
25302;DHT22;13243;50.888;4.724;2023-02-16T00:19:39;6.60;99.90
25302;DHT22;13243;50.888;4.724;2023-02-16T00:24:42;6.50;99.90
25302;DHT22;13243;50.888;4.724;2023-02-16T00:29:44;6.30;99.90
25302;DHT22;13243;50.888;4.724;2023-02-16T00:34:46;6.40;99.90
25302;DHT22;13243;50.888;4.724;2023-02-16T00:39:48;6.40;99.90
25302;DHT22;13243;50.888;4.724;2023-02-16T00:44:53;6.40;99.90
25302;DHT22;13243;50.888;4.724;2023-02-16T00:49:55;5.90;99.90
25302;DHT22;13243;50.888;4.724;2023-02-16T00:54:59;6.00;99.90
25302;DHT22;13243;50.888;4.724;2023-02-16T01:00:32;6.00;99.90
25302;DHT22;13243;50.888;4.724;2023-02-16T01:05:35;6.30;99.90
25302;DHT22;13243;50.888;4.724;2023-02-16T01:10:38;6.40;99.90
25302;DHT22;13243;50.888;4.724;2023-02-16T01:15:59;6.30;99.90
25302;DHT22;13243;50.888;4.724;2023-02-16T01:21:01;6.40;99.90
25302;DHT22;13243;50.888;4.724;2023-02-16T01:26:04;6.20;99.90
25302;DHT22;13243;50.888;4.724;2023-02-16T01:31:09;6.10;99.90
25302;DHT22;13243;50.888;4.724;2023-02-16T01:36:32;6.10;99.90
25302;DHT22;13243;50.888;4.724;2023-02-16T01:41:58;5.60;99.90
25302;DHT22;13243;50.888;4.724;2023-02-16T01:52:21;5.90;99.90
25302;DHT22;13243;50.888;4.724;2023-02-16T02:02:38;6.00;99.90
25302;DHT22;13243;50.888;4.724;2023-02-16T02:13:06;6.20;99.90
25302;DHT22;13243;50.888;4.724;2023-02-16T02:18:09;6.20;99.90
25302;DHT22;13243;50.888;4.724;2023-02-16T02:34:41;6.30;99.90
25302;DHT22;13243;50.888;4.724;2023-02-16T02:40:07;6.30;99.90
25302;DHT22;13243;50.888;4.724;2023-02-16T02:45:20;6.30;99.90
25302;DHT22;13243;50.888;4.724;2023-02-16T02:50:47;6.40;99.90
25302;DHT22;13243;50.888;4.724;2023-02-16T02:56:09;6.40;99.90
25302;DHT22;13243;50.888;4.724;2023-02-16T03:01:30;6.40;99.90
25302;DHT22;13243;50.888;4.724;2023-02-16T03:06:37;6.40;99.90
25302;DHT22;13243;50.888;4.724;2023-02-16T03:11:42;6.40;99.90
25302;DHT22;13243;50.888;4.724;2023-02-16T03:17:18;6.40;99.90
25302;DHT22;13243;50.888;4.724;2023-02-16T03:22:40;6.30;99.90
25302;DHT22;13243;50.888;4.724;2023-02-16T03:28:01;6.30;99.90
25302;DHT22;13243;50.888;4.724;2023-02-16T03:33:24;6.40;99.90
25302;DHT22;13243;50.888;4.724;2023-02-16T03:38:27;6.30;99.90
25302;DHT22;13243;50.888;4.724;2023-02-16T03:43:29;6.10;99.90
25302;DHT22;13243;50.888;4.724;2023-02-16T03:48:30;6.10;99.90
25302;DHT22;13243;50.888;4.724;2023-02-16T03:53:32;6.10;99.90
25302;DHT22;13243;50.888;4.724;2023-02-16T03:58:34;6.10;99.90
25302;DHT22;13243;50.888;4.724;2023-02-16T04:03:36;6.10;99.90
25302;DHT22;13243;50.888;4.724;2023-02-16T04:08:38;6.20;99.90
25302;DHT22;13243;50.888;4.724;2023-02-16T04:13:40;6.10;99.90
25302;DHT22;13243;50.888;4.724;2023-02-16T04:18:42;6.10;99.90
25302;DHT22;13243;50.888;4.724;2023-02-16T04:23:44;6.20;99.90
25302;DHT22;13243;50.888;4.724;2023-02-16T04:28:46;6.30;99.90
25302;DHT22;13243;50.888;4.724;2023-02-16T04:33:48;6.20;99.90
25302;DHT22;13243;50.888;4.724;2023-02-16T04:38:49;6.30;99.90
25302;DHT22;13243;50.888;4.724;2023-02-16T04:43:51;6.40;99.90
25302;DHT22;13243;50.888;4.724;2023-02-16T04:48:53;6.20;99.90
25302;DHT22;13243;50.888;4.724;2023-02-16T04:53:55;6.40;99.90
25302;DHT22;13243;50.888;4.724;2023-02-16T04:58:57;6.50;99.90
25302;DHT22;13243;50.888;4.724;2023-02-16T05:03:59;6.50;99.90
25302;DHT22;13243;50.888;4.724;2023-02-16T05:09:02;6.60;99.90
25302;DHT22;13243;50.888;4.724;2023-02-16T05:14:04;6.60;99.90
25302;DHT22;13243;50.888;4.724;2023-02-16T05:19:24;6.60;99.90
25302;DHT22;13243;50.888;4.724;2023-02-16T05:24:26;6.80;99.90
25302;DHT22;13243;50.888;4.724;2023-02-16T05:29:29;6.80;99.90
25302;DHT22;13243;50.888;4.724;2023-02-16T05:34:31;6.80;99.90
25302;DHT22;13243;50.888;4.724;2023-02-16T05:39:33;6.80;99.90
25302;DHT22;13243;50.888;4.724;2023-02-16T05:44:35;6.90;99.90
25302;DHT22;13243;50.888;4.724;2023-02-16T05:49:37;6.90;99.90
25302;DHT22;13243;50.888;4.724;2023-02-16T05:54:39;6.80;99.90
25302;DHT22;13243;50.888;4.724;2023-02-16T05:59:41;6.80;99.90
25302;DHT22;13243;50.888;4.724;2023-02-16T06:04:43;6.90;99.90
25302;DHT22;13243;50.888;4.724;2023-02-16T06:09:44;6.80;99.90
25302;DHT22;13243;50.888;4.724;2023-02-16T06:14:46;6.90;99.90
25302;DHT22;13243;50.888;4.724;2023-02-16T06:19:48;6.90;99.90
25302;DHT22;13243;50.888;4.724;2023-02-16T06:24:50;6.80;99.90
25302;DHT22;13243;50.888;4.724;2023-02-16T06:29:52;7.00;99.90
25302;DHT22;13243;50.888;4.724;2023-02-16T06:34:53;7.00;99.90
25302;DHT22;13243;50.888;4.724;2023-02-16T06:39:55;7.00;99.90
25302;DHT22;13243;50.888;4.724;2023-02-16T06:44:57;7.00;99.90
25302;DHT22;13243;50.888;4.724;2023-02-16T06:49:59;7.00;99.90
25302;DHT22;13243;50.888;4.724;2023-02-16T06:55:02;7.00;99.90
25302;DHT22;13243;50.888;4.724;2023-02-16T07:00:04;7.00;99.90
25302;DHT22;13243;50.888;4.724;2023-02-16T07:05:08;7.00;99.90
25302;DHT22;13243;50.888;4.724;2023-02-16T07:10:11;7.00;99.90
25302;DHT22;13243;50.888;4.724;2023-02-16T07:15:12;7.00;99.90
25302;DHT22;13243;50.888;4.724;2023-02-16T07:20:14;7.00;99.90
25302;DHT22;13243;50.888;4.724;2023-02-16T07:25:16;7.00;99.90
25302;DHT22;13243;50.888;4.724;2023-02-16T07:30:18;7.10;99.90
25302;DHT22;13243;50.888;4.724;2023-02-16T07:35:20;7.10;99.90
25302;DHT22;13243;50.888;4.724;2023-02-16T07:40:23;7.10;99.90
25302;DHT22;13243;50.888;4.724;2023-02-16T07:45:25;7.10;99.90
25302;DHT22;13243;50.888;4.724;2023-02-16T07:50:27;7.20;99.90
25302;DHT22;13243;50.888;4.724;2023-02-16T07:55:29;7.30;99.90
25302;DHT22;13243;50.888;4.724;2023-02-16T08:00:31;7.30;99.90
25302;DHT22;13243;50.888;4.724;2023-02-16T08:05:33;7.40;99.90
25302;DHT22;13243;50.888;4.724;2023-02-16T08:10:35;7.40;99.90
25302;DHT22;13243;50.888;4.724;2023-02-16T08:15:41;7.40;99.90
25302;DHT22;13243;50.888;4.724;2023-02-16T08:20:43;7.50;99.90
25302;DHT22;13243;50.888;4.724;2023-02-16T08:26:09;7.50;99.90
25302;DHT22;13243;50.888;4.724;2023-02-16T08:31:19;7.50;99.90
25302;DHT22;13243;50.888;4.724;2023-02-16T08:36:27;7.50;99.90
25302;DHT22;13243;50.888;4.724;2023-02-16T08:41:34;7.50;99.90
25302;DHT22;13243;50.888;4.724;2023-02-16T08:46:38;7.60;99.90
25302;DHT22;13243;50.888;4.724;2023-02-16T08:51:43;7.70;99.90
25302;DHT22;13243;50.888;4.724;2023-02-16T08:56:46;7.80;99.90
25302;DHT22;13243;50.888;4.724;2023-02-16T09:01:50;7.80;99.90
25302;DHT22;13243;50.888;4.724;2023-02-16T09:06:52;7.90;99.90
25302;DHT22;13243;50.888;4.724;2023-02-16T09:11:54;7.90;99.90
25302;DHT22;13243;50.888;4.724;2023-02-16T09:16:56;7.90;99.90
25302;DHT22;13243;50.888;4.724;2023-02-16T09:21:58;7.90;99.90
25302;DHT22;13243;50.888;4.724;2023-02-16T09:27:00;7.90;99.90
25302;DHT22;13243;50.888;4.724;2023-02-16T09:32:02;8.00;99.90
25302;DHT22;13243;50.888;4.724;2023-02-16T09:37:04;8.00;99.90
25302;DHT22;13243;50.888;4.724;2023-02-16T09:47:35;7.90;99.90
25302;DHT22;13243;50.888;4.724;2023-02-16T09:57:58;8.00;99.90
25302;DHT22;13243;50.888;4.724;2023-02-16T10:08:33;8.10;99.90
25302;DHT22;13243;50.888;4.724;2023-02-16T10:13:42;8.20;99.90
25302;DHT22;13243;50.888;4.724;2023-02-16T10:18:51;8.20;99.90
25302;DHT22;13243;50.888;4.724;2023-02-16T10:23:58;8.30;99.90
25302;DHT22;13243;50.888;4.724;2023-02-16T10:29:13;8.50;99.90
25302;DHT22;13243;50.888;4.724;2023-02-16T10:39:57;8.50;99.90
25302;DHT22;13243;50.888;4.724;2023-02-16T10:50:54;9.00;99.90
25302;DHT22;13243;50.888;4.724;2023-02-16T10:55:59;9.10;99.90
25302;DHT22;13243;50.888;4.724;2023-02-16T11:01:14;9.10;99.90
25302;DHT22;13243;50.888;4.724;2023-02-16T11:06:22;9.20;99.90
25302;DHT22;13243;50.888;4.724;2023-02-16T11:11:44;9.30;99.90
25302;DHT22;13243;50.888;4.724;2023-02-16T11:16:46;9.50;99.90
25302;DHT22;13243;50.888;4.724;2023-02-16T11:21:50;9.70;99.90
25302;DHT22;13243;50.888;4.724;2023-02-16T11:27:03;9.90;99.90
25302;DHT22;13243;50.888;4.724;2023-02-16T11:32:07;10.30;99.90
25302;DHT22;13243;50.888;4.724;2023-02-16T11:42:40;10.50;99.90
25302;DHT22;13243;50.888;4.724;2023-02-16T11:47:52;10.70;99.90
25302;DHT22;13243;50.888;4.724;2023-02-16T11:53:11;10.70;99.90
25302;DHT22;13243;50.888;4.724;2023-02-16T11:58:24;10.70;99.90
25302;DHT22;13243;50.888;4.724;2023-02-16T12:08:53;10.90;99.90
25302;DHT22;13243;50.888;4.724;2023-02-16T12:30:00;11.60;99.90
25302;DHT22;13243;50.888;4.724;2023-02-16T12:45:54;11.80;99.90
25302;DHT22;13243;50.888;4.724;2023-02-16T12:50:58;11.90;99.90
25302;DHT22;13243;50.888;4.724;2023-02-16T12:56:07;12.00;99.90
25302;DHT22;13243;50.888;4.724;2023-02-16T13:01:15;12.10;99.90
25302;DHT22;13243;50.888;4.724;2023-02-16T13:06:39;12.60;99.90
25302;DHT22;13243;50.888;4.724;2023-02-16T13:11:52;13.10;99.90
25302;DHT22;13243;50.888;4.724;2023-02-16T13:16:59;13.10;99.90
25302;DHT22;13243;50.888;4.724;2023-02-16T13:43:53;13.40;99.90
25302;DHT22;13243;50.888;4.724;2023-02-16T13:48:53;13.60;99.90
25302;DHT22;13243;50.888;4.724;2023-02-16T13:54:03;13.70;99.90
25302;DHT22;13243;50.888;4.724;2023-02-16T14:09:48;13.70;99.90
25302;DHT22;13243;50.888;4.724;2023-02-16T14:35:34;13.70;99.90
25302;DHT22;13243;50.888;4.724;2023-02-16T14:40:56;13.60;99.90
25302;DHT22;13243;50.888;4.724;2023-02-16T14:56:41;13.20;99.90
25302;DHT22;13243;50.888;4.724;2023-02-16T15:01:45;13.00;99.90
25302;DHT22;13243;50.888;4.724;2023-02-16T15:06:47;12.90;99.90
25302;DHT22;13243;50.888;4.724;2023-02-16T15:11:55;12.90;99.90
25302;DHT22;13243;50.888;4.724;2023-02-16T15:17:37;12.70;99.90
25302;DHT22;13243;50.888;4.724;2023-02-16T15:22:51;12.70;99.90
25302;DHT22;13243;50.888;4.724;2023-02-16T15:27:58;12.70;99.90
25302;DHT22;13243;50.888;4.724;2023-02-16T15:33:04;12.60;99.90
25302;DHT22;13243;50.888;4.724;2023-02-16T15:38:23;12.60;99.90
25302;DHT22;13243;50.888;4.724;2023-02-16T15:43:35;12.50;99.90
25302;DHT22;13243;50.888;4.724;2023-02-16T15:48:38;12.40;99.90
25302;DHT22;13243;50.888;4.724;2023-02-16T16:04:22;12.30;99.90
25302;DHT22;13243;50.888;4.724;2023-02-16T16:09:32;12.20;99.90
25302;DHT22;13243;50.888;4.724;2023-02-16T16:14:38;12.20;99.90
25302;DHT22;13243;50.888;4.724;2023-02-16T16:19:41;12.00;99.90
25302;DHT22;13243;50.888;4.724;2023-02-16T16:24:42;11.80;99.90
25302;DHT22;13243;50.888;4.724;2023-02-16T16:29:48;11.60;99.90
25302;DHT22;13243;50.888;4.724;2023-02-16T16:34:50;11.50;99.90
25302;DHT22;13243;50.888;4.724;2023-02-16T16:40:28;11.40;99.90
25302;DHT22;13243;50.888;4.724;2023-02-16T16:45:38;11.40;99.90
25302;DHT22;13243;50.888;4.724;2023-02-16T16:50:41;11.30;99.90
25302;DHT22;13243;50.888;4.724;2023-02-16T16:55:43;11.20;99.90
25302;DHT22;13243;50.888;4.724;2023-02-16T17:00:45;11.10;99.90
25302;DHT22;13243;50.888;4.724;2023-02-16T17:05:47;11.00;99.90
25302;DHT22;13243;50.888;4.724;2023-02-16T17:10:49;10.90;99.90
25302;DHT22;13243;50.888;4.724;2023-02-16T17:15:57;10.80;99.90
25302;DHT22;13243;50.888;4.724;2023-02-16T17:20:59;10.70;99.90
25302;DHT22;13243;50.888;4.724;2023-02-16T17:26:01;10.70;99.90
25302;DHT22;13243;50.888;4.724;2023-02-16T17:31:06;10.60;99.90
25302;DHT22;13243;50.888;4.724;2023-02-16T17:36:12;10.60;99.90
25302;DHT22;13243;50.888;4.724;2023-02-16T17:41:25;10.60;99.90
25302;DHT22;13243;50.888;4.724;2023-02-16T17:46:27;10.70;99.90
25302;DHT22;13243;50.888;4.724;2023-02-16T17:51:29;10.70;99.90
25302;DHT22;13243;50.888;4.724;2023-02-16T17:56:33;10.70;99.90
25302;DHT22;13243;50.888;4.724;2023-02-16T18:01:35;10.70;99.90
25302;DHT22;13243;50.888;4.724;2023-02-16T18:06:38;10.70;99.90
25302;DHT22;13243;50.888;4.724;2023-02-16T18:11:40;10.70;99.90
25302;DHT22;13243;50.888;4.724;2023-02-16T18:16:42;10.70;99.90
25302;DHT22;13243;50.888;4.724;2023-02-16T18:21:44;10.70;99.90
25302;DHT22;13243;50.888;4.724;2023-02-16T18:26:47;10.80;99.90
25302;DHT22;13243;50.888;4.724;2023-02-16T18:31:50;10.80;99.90
25302;DHT22;13243;50.888;4.724;2023-02-16T18:36:52;10.80;99.90
25302;DHT22;13243;50.888;4.724;2023-02-16T18:41:54;10.70;99.90
25302;DHT22;13243;50.888;4.724;2023-02-16T18:46:56;10.80;99.90
25302;DHT22;13243;50.888;4.724;2023-02-16T18:51:57;10.80;99.90
25302;DHT22;13243;50.888;4.724;2023-02-16T18:56:59;10.80;99.90
25302;DHT22;13243;50.888;4.724;2023-02-16T19:02:02;10.80;99.90
25302;DHT22;13243;50.888;4.724;2023-02-16T19:07:04;10.80;99.90
25302;DHT22;13243;50.888;4.724;2023-02-16T19:12:06;10.80;99.90
25302;DHT22;13243;50.888;4.724;2023-02-16T19:17:08;10.80;99.90
25302;DHT22;13243;50.888;4.724;2023-02-16T19:22:09;10.80;99.90
25302;DHT22;13243;50.888;4.724;2023-02-16T19:27:11;10.80;99.90
25302;DHT22;13243;50.888;4.724;2023-02-16T19:32:13;10.80;99.90
25302;DHT22;13243;50.888;4.724;2023-02-16T19:37:15;10.70;99.90
25302;DHT22;13243;50.888;4.724;2023-02-16T19:42:17;10.70;99.90
25302;DHT22;13243;50.888;4.724;2023-02-16T19:47:19;10.70;99.90
25302;DHT22;13243;50.888;4.724;2023-02-16T19:52:20;10.70;99.90
25302;DHT22;13243;50.888;4.724;2023-02-16T19:57:22;10.70;99.90
25302;DHT22;13243;50.888;4.724;2023-02-16T20:02:24;10.70;99.90
25302;DHT22;13243;50.888;4.724;2023-02-16T20:07:26;10.70;99.90
25302;DHT22;13243;50.888;4.724;2023-02-16T20:12:29;10.70;99.90
25302;DHT22;13243;50.888;4.724;2023-02-16T20:17:31;10.70;99.90
25302;DHT22;13243;50.888;4.724;2023-02-16T20:22:33;10.70;99.90
25302;DHT22;13243;50.888;4.724;2023-02-16T20:27:35;10.70;99.90
25302;DHT22;13243;50.888;4.724;2023-02-16T20:32:37;10.70;99.90
25302;DHT22;13243;50.888;4.724;2023-02-16T20:37:39;10.70;99.90
25302;DHT22;13243;50.888;4.724;2023-02-16T20:42:41;10.80;99.90
25302;DHT22;13243;50.888;4.724;2023-02-16T20:47:42;10.80;99.90
25302;DHT22;13243;50.888;4.724;2023-02-16T20:52:44;10.80;99.90
25302;DHT22;13243;50.888;4.724;2023-02-16T20:57:46;10.80;99.90
25302;DHT22;13243;50.888;4.724;2023-02-16T21:02:48;10.80;99.90
25302;DHT22;13243;50.888;4.724;2023-02-16T21:07:50;10.80;99.90
25302;DHT22;13243;50.888;4.724;2023-02-16T21:12:52;10.90;99.90
25302;DHT22;13243;50.888;4.724;2023-02-16T21:17:54;10.90;99.90
25302;DHT22;13243;50.888;4.724;2023-02-16T21:22:56;10.90;99.90
25302;DHT22;13243;50.888;4.724;2023-02-16T21:27:58;10.90;99.90
25302;DHT22;13243;50.888;4.724;2023-02-16T21:33:00;10.90;99.90
25302;DHT22;13243;50.888;4.724;2023-02-16T21:38:02;10.90;99.90
25302;DHT22;13243;50.888;4.724;2023-02-16T21:43:05;11.00;99.90
25302;DHT22;13243;50.888;4.724;2023-02-16T21:48:06;11.00;99.90
25302;DHT22;13243;50.888;4.724;2023-02-16T21:53:29;11.10;99.90
25302;DHT22;13243;50.888;4.724;2023-02-16T21:58:32;11.00;99.90
25302;DHT22;13243;50.888;4.724;2023-02-16T22:03:34;11.10;99.90
25302;DHT22;13243;50.888;4.724;2023-02-16T22:08:36;11.10;99.90
25302;DHT22;13243;50.888;4.724;2023-02-16T22:13:39;11.20;99.90
25302;DHT22;13243;50.888;4.724;2023-02-16T22:18:42;11.20;99.90
25302;DHT22;13243;50.888;4.724;2023-02-16T22:23:44;11.30;99.90
25302;DHT22;13243;50.888;4.724;2023-02-16T22:28:45;11.30;99.90
25302;DHT22;13243;50.888;4.724;2023-02-16T22:33:56;11.30;99.90
25302;DHT22;13243;50.888;4.724;2023-02-16T22:38:58;11.40;99.90
25302;DHT22;13243;50.888;4.724;2023-02-16T22:44:00;11.40;99.90
25302;DHT22;13243;50.888;4.724;2023-02-16T22:49:02;11.50;99.90
25302;DHT22;13243;50.888;4.724;2023-02-16T22:54:05;11.60;99.90
25302;DHT22;13243;50.888;4.724;2023-02-16T22:59:08;11.70;99.90
25302;DHT22;13243;50.888;4.724;2023-02-16T23:04:13;11.60;99.90
25302;DHT22;13243;50.888;4.724;2023-02-16T23:09:19;11.80;99.90
25302;DHT22;13243;50.888;4.724;2023-02-16T23:14:21;11.70;99.90
25302;DHT22;13243;50.888;4.724;2023-02-16T23:19:25;11.70;99.90
25302;DHT22;13243;50.888;4.724;2023-02-16T23:24:27;11.70;99.90
25302;DHT22;13243;50.888;4.724;2023-02-16T23:29:28;11.70;99.90
25302;DHT22;13243;50.888;4.724;2023-02-16T23:34:30;11.80;99.90
25302;DHT22;13243;50.888;4.724;2023-02-16T23:39:32;11.70;99.90
25302;DHT22;13243;50.888;4.724;2023-02-16T23:44:34;11.60;99.90
25302;DHT22;13243;50.888;4.724;2023-02-16T23:49:36;11.70;99.90
25302;DHT22;13243;50.888;4.724;2023-02-16T23:54:38;11.70;99.90
25302;DHT22;13243;50.888;4.724;2023-02-16T23:59:39;11.70;99.90
